createdAt,value
2018-06-30T00:00:25.621Z,0
2018-06-30T00:01:26.966Z,0
2018-06-30T00:02:27.812Z,0
2018-06-30T00:03:28.537Z,0
2018-06-30T00:04:29.711Z,0
2018-06-30T00:05:30.728Z,0
2018-06-30T00:06:31.474Z,0
2018-06-30T00:07:32.264Z,0
2018-06-30T00:08:32.987Z,0
2018-06-30T00:09:33.718Z,0
2018-06-30T00:10:34.449Z,0
2018-06-30T00:11:35.174Z,0
2018-06-30T00:12:35.950Z,0
2018-06-30T00:13:36.683Z,0
2018-06-30T00:14:37.405Z,0
2018-06-30T00:15:38.133Z,0
2018-06-30T00:16:38.859Z,0
2018-06-30T00:17:39.652Z,0
2018-06-30T00:18:40.366Z,0
2018-06-30T00:19:41.092Z,0
2018-06-30T00:20:42.223Z,0
2018-06-30T00:21:42.993Z,0
2018-06-30T00:22:44.375Z,0
2018-06-30T00:23:45.208Z,0
2018-06-30T00:24:46.447Z,0
2018-06-30T00:25:47.268Z,0
2018-06-30T00:26:47.987Z,0
2018-06-30T00:27:48.718Z,0
2018-06-30T00:28:49.447Z,0
2018-06-30T00:29:50.184Z,0
2018-06-30T00:30:51.254Z,0
2018-06-30T00:31:51.977Z,0
2018-06-30T00:32:52.956Z,0
2018-06-30T00:33:53.695Z,0
2018-06-30T00:34:54.424Z,0
2018-06-30T00:35:55.154Z,0
2018-06-30T00:36:55.882Z,0
2018-06-30T00:37:56.618Z,0
2018-06-30T00:38:57.355Z,0
2018-06-30T00:39:58.090Z,0
2018-06-30T00:40:58.817Z,0
2018-06-30T00:41:59.553Z,0
2018-06-30T00:43:00.283Z,0
2018-06-30T00:44:01.011Z,0
2018-06-30T00:45:01.738Z,0
2018-06-30T00:46:02.457Z,0
2018-06-30T00:47:03.179Z,0
2018-06-30T00:48:04.256Z,0
2018-06-30T00:49:05.001Z,0
2018-06-30T00:50:05.724Z,0
2018-06-30T00:51:06.443Z,0
2018-06-30T00:52:07.175Z,0
2018-06-30T00:53:08.006Z,0
2018-06-30T00:54:08.731Z,0
2018-06-30T00:55:09.442Z,0
2018-06-30T00:56:10.448Z,0
2018-06-30T00:57:11.618Z,0
2018-06-30T00:58:12.444Z,0
2018-06-30T00:59:13.697Z,0
2018-06-30T01:00:14.528Z,0
2018-06-30T01:01:15.279Z,0
2018-06-30T01:02:16.505Z,0
2018-06-30T01:03:17.319Z,0
2018-06-30T01:04:18.050Z,0
2018-06-30T01:05:18.769Z,0
2018-06-30T01:06:19.493Z,0
2018-06-30T01:07:20.247Z,0
2018-06-30T01:08:21.679Z,0
2018-06-30T01:09:22.492Z,0
2018-06-30T01:10:23.704Z,0
2018-06-30T01:11:24.948Z,0
2018-06-30T01:12:25.771Z,0
2018-06-30T01:13:27.170Z,0
2018-06-30T01:14:27.998Z,0
2018-06-30T01:15:28.724Z,0
2018-06-30T01:16:29.918Z,0
2018-06-30T01:17:30.729Z,0
2018-06-30T01:18:31.446Z,0
2018-06-30T01:19:32.217Z,0
2018-06-30T01:20:32.942Z,0
2018-06-30T01:21:33.670Z,0
2018-06-30T01:22:34.377Z,0
2018-06-30T01:23:35.749Z,0
2018-06-30T01:24:37.247Z,0
2018-06-30T01:25:38.074Z,0
2018-06-30T01:26:38.923Z,0
2018-06-30T01:27:40.134Z,0
2018-06-30T01:28:41.085Z,0
2018-06-30T01:29:42.297Z,0
2018-06-30T01:30:43.448Z,0
2018-06-30T01:31:44.754Z,0
2018-06-30T01:32:45.572Z,0
2018-06-30T01:33:46.302Z,0
2018-06-30T01:34:47.426Z,0
2018-06-30T01:35:48.683Z,0
2018-06-30T01:36:49.503Z,0
2018-06-30T01:37:50.665Z,0
2018-06-30T01:38:51.419Z,0
2018-06-30T01:39:52.621Z,0
2018-06-30T01:40:53.839Z,0
2018-06-30T01:41:54.649Z,0
2018-06-30T01:42:55.367Z,0
2018-06-30T01:43:56.544Z,0
2018-06-30T01:44:57.891Z,0
2018-06-30T01:45:58.704Z,0
2018-06-30T01:46:59.440Z,0
2018-06-30T01:48:00.410Z,0
2018-06-30T01:49:01.145Z,0
2018-06-30T01:50:01.966Z,0
2018-06-30T01:51:02.685Z,0
2018-06-30T01:52:03.411Z,0
2018-06-30T01:53:04.137Z,0
2018-06-30T01:54:04.859Z,0
2018-06-30T01:55:05.592Z,0
2018-06-30T01:56:06.558Z,0
2018-06-30T01:57:07.337Z,0
2018-06-30T01:58:08.080Z,0
2018-06-30T01:59:08.801Z,0
2018-06-30T02:00:09.765Z,0
2018-06-30T02:01:10.490Z,0
2018-06-30T02:02:11.214Z,0
2018-06-30T02:03:11.951Z,0
2018-06-30T02:04:12.667Z,0
2018-06-30T02:05:13.381Z,0
2018-06-30T02:06:14.105Z,0
2018-06-30T02:07:14.828Z,0
2018-06-30T02:08:15.647Z,0
2018-06-30T02:09:16.376Z,0
2018-06-30T02:10:17.105Z,0
2018-06-30T02:11:17.833Z,0
2018-06-30T02:12:18.554Z,0
2018-06-30T02:13:19.388Z,0
2018-06-30T02:14:20.115Z,0
2018-06-30T02:15:20.827Z,0
2018-06-30T02:16:21.562Z,0
2018-06-30T02:17:22.286Z,0
2018-06-30T02:18:23.014Z,0
2018-06-30T02:19:23.735Z,4
2018-06-30T02:20:24.458Z,4
2018-06-30T02:21:25.174Z,4
2018-06-30T02:22:25.895Z,0
2018-06-30T02:23:26.614Z,4
2018-06-30T02:24:27.578Z,4
2018-06-30T02:25:28.306Z,4
2018-06-30T02:26:29.072Z,4
2018-06-30T02:27:29.789Z,4
2018-06-30T02:28:30.532Z,8
2018-06-30T02:29:31.239Z,8
2018-06-30T02:30:31.955Z,4
2018-06-30T02:31:32.682Z,8
2018-06-30T02:32:33.406Z,8
2018-06-30T02:33:34.134Z,8
2018-06-30T02:34:34.864Z,8
2018-06-30T02:35:35.584Z,12
2018-06-30T02:36:36.312Z,12
2018-06-30T02:37:37.294Z,16
2018-06-30T02:38:38.020Z,20
2018-06-30T02:39:38.734Z,20
2018-06-30T02:40:39.457Z,24
2018-06-30T02:41:40.176Z,28
2018-06-30T02:42:40.893Z,28
2018-06-30T02:43:41.613Z,32
2018-06-30T02:44:42.348Z,40
2018-06-30T02:45:43.061Z,40
2018-06-30T02:46:43.772Z,48
2018-06-30T02:47:44.506Z,52
2018-06-30T02:48:45.615Z,56
2018-06-30T02:49:46.366Z,64
2018-06-30T02:50:47.226Z,68
2018-06-30T02:51:48.007Z,80
2018-06-30T02:52:48.794Z,88
2018-06-30T02:53:49.976Z,96
2018-06-30T02:54:50.780Z,104
2018-06-30T02:55:51.504Z,116
2018-06-30T02:56:52.271Z,128
2018-06-30T02:57:53.531Z,140
2018-06-30T02:58:54.265Z,152
2018-06-30T02:59:55.238Z,164
2018-06-30T03:00:55.977Z,176
2018-06-30T03:01:56.782Z,196
2018-06-30T03:02:58.080Z,208
2018-06-30T03:03:58.817Z,228
2018-06-30T03:05:00.056Z,248
2018-06-30T03:06:00.808Z,264
2018-06-30T03:07:01.620Z,284
2018-06-30T03:08:02.345Z,304
2018-06-30T03:09:03.241Z,324
2018-06-30T03:10:03.966Z,348
2018-06-30T03:11:04.777Z,368
2018-06-30T03:12:05.759Z,392
2018-06-30T03:13:06.487Z,420
2018-06-30T03:14:07.465Z,440
2018-06-30T03:15:08.361Z,464
2018-06-30T03:16:09.116Z,492
2018-06-30T03:17:10.649Z,516
2018-06-30T03:18:11.389Z,544
2018-06-30T03:19:12.275Z,576
2018-06-30T03:20:13.010Z,604
2018-06-30T03:21:13.734Z,628
2018-06-30T03:22:14.455Z,660
2018-06-30T03:23:15.185Z,684
2018-06-30T03:24:16.264Z,716
2018-06-30T03:25:16.988Z,744
2018-06-30T03:26:17.712Z,772
2018-06-30T03:27:18.430Z,808
2018-06-30T03:28:19.155Z,832
2018-06-30T03:29:19.874Z,860
2018-06-30T03:30:20.620Z,892
2018-06-30T03:31:21.344Z,924
2018-06-30T03:32:22.072Z,956
2018-06-30T03:33:22.797Z,988
2018-06-30T03:34:23.531Z,1016
2018-06-30T03:35:24.351Z,1044
2018-06-30T03:36:25.088Z,1076
2018-06-30T03:37:25.816Z,1104
2018-06-30T03:38:26.571Z,1132
2018-06-30T03:39:27.272Z,1160
2018-06-30T03:40:28.338Z,1192
2018-06-30T03:41:29.303Z,1220
2018-06-30T03:42:30.033Z,1252
2018-06-30T03:43:30.759Z,1284
2018-06-30T03:44:31.481Z,1316
2018-06-30T03:45:32.208Z,1340
2018-06-30T03:46:32.946Z,1364
2018-06-30T03:47:33.916Z,1388
2018-06-30T03:48:34.905Z,1416
2018-06-30T03:49:35.630Z,1444
2018-06-30T03:50:36.400Z,1468
2018-06-30T03:51:37.138Z,1492
2018-06-30T03:52:37.859Z,1520
2018-06-30T03:53:38.597Z,1548
2018-06-30T03:54:39.318Z,1568
2018-06-30T03:55:40.085Z,1596
2018-06-30T03:56:40.823Z,1624
2018-06-30T03:57:41.551Z,1652
2018-06-30T03:58:42.264Z,1676
2018-06-30T03:59:42.991Z,1696
2018-06-30T04:00:43.770Z,1716
2018-06-30T04:01:44.494Z,1744
2018-06-30T04:02:45.226Z,1772
2018-06-30T04:03:45.949Z,1788
2018-06-30T04:04:46.681Z,1816
2018-06-30T04:05:47.407Z,1836
2018-06-30T04:06:48.127Z,1860
2018-06-30T04:07:49.102Z,1884
2018-06-30T04:08:49.829Z,1900
2018-06-30T04:09:50.568Z,1924
2018-06-30T04:10:51.288Z,1940
2018-06-30T04:11:52.025Z,1964
2018-06-30T04:12:52.907Z,1984
2018-06-30T04:13:53.646Z,2012
2018-06-30T04:14:54.376Z,2028
2018-06-30T04:15:55.104Z,2052
2018-06-30T04:16:55.828Z,2076
2018-06-30T04:17:56.557Z,2104
2018-06-30T04:18:57.304Z,2112
2018-06-30T04:19:58.069Z,2140
2018-06-30T04:20:58.796Z,2160
2018-06-30T04:21:59.555Z,2188
2018-06-30T04:23:00.357Z,2208
2018-06-30T04:24:01.090Z,2232
2018-06-30T04:25:01.813Z,2264
2018-06-30T04:26:02.786Z,2280
2018-06-30T04:27:03.539Z,2312
2018-06-30T04:28:04.277Z,2336
2018-06-30T04:29:05.009Z,2356
2018-06-30T04:30:05.738Z,2384
2018-06-30T04:31:06.465Z,2416
2018-06-30T04:32:07.193Z,2428
2018-06-30T04:33:07.919Z,2452
2018-06-30T04:34:08.698Z,2484
2018-06-30T04:35:09.419Z,2496
2018-06-30T04:36:10.148Z,2516
2018-06-30T04:37:10.871Z,2544
2018-06-30T04:38:11.593Z,2560
2018-06-30T04:39:12.376Z,2576
2018-06-30T04:40:13.109Z,2592
2018-06-30T04:41:13.825Z,2612
2018-06-30T04:42:14.576Z,2632
2018-06-30T04:43:15.293Z,2660
2018-06-30T04:44:16.027Z,2672
2018-06-30T04:45:16.870Z,2704
2018-06-30T04:46:17.536Z,2740
2018-06-30T04:47:18.265Z,2780
2018-06-30T04:48:18.980Z,2812
2018-06-30T04:49:19.703Z,2856
2018-06-30T04:50:20.528Z,2888
2018-06-30T04:51:21.253Z,2908
2018-06-30T04:52:21.970Z,2936
2018-06-30T04:53:22.716Z,2952
2018-06-30T04:54:23.453Z,2968
2018-06-30T04:55:24.424Z,2984
2018-06-30T04:56:25.160Z,3000
2018-06-30T04:57:25.874Z,3012
2018-06-30T04:58:26.607Z,3036
2018-06-30T04:59:27.333Z,3056
2018-06-30T05:00:28.058Z,3068
2018-06-30T05:01:28.783Z,3092
2018-06-30T05:02:29.512Z,3104
2018-06-30T05:03:30.230Z,3116
2018-06-30T05:04:30.955Z,3140
2018-06-30T05:05:31.724Z,3156
2018-06-30T05:06:32.445Z,3168
2018-06-30T05:07:33.172Z,3184
2018-06-30T05:08:33.891Z,3204
2018-06-30T05:09:34.626Z,3220
2018-06-30T05:10:35.460Z,3240
2018-06-30T05:11:36.188Z,3252
2018-06-30T05:12:36.911Z,3268
2018-06-30T05:13:37.638Z,3300
2018-06-30T05:14:38.361Z,3304
2018-06-30T05:15:39.107Z,3328
2018-06-30T05:16:39.827Z,3340
2018-06-30T05:17:40.561Z,3364
2018-06-30T05:18:41.295Z,3380
2018-06-30T05:19:42.022Z,3412
2018-06-30T05:20:42.745Z,3656
2018-06-30T05:21:43.477Z,6040
2018-06-30T05:22:44.199Z,8148
2018-06-30T05:23:44.917Z,6608
2018-06-30T05:24:45.636Z,7336
2018-06-30T05:25:46.383Z,8108
2018-06-30T05:26:47.103Z,6712
2018-06-30T05:27:48.166Z,6284
2018-06-30T05:28:48.896Z,7340
2018-06-30T05:29:49.628Z,8564
2018-06-30T05:30:50.355Z,10512
2018-06-30T05:31:51.075Z,8212
2018-06-30T05:32:52.089Z,7120
2018-06-30T05:33:52.826Z,7524
2018-06-30T05:34:53.797Z,6064
2018-06-30T05:35:54.523Z,7980
2018-06-30T05:36:55.252Z,8348
2018-06-30T05:37:56.586Z,7604
2018-06-30T05:38:57.306Z,9440
2018-06-30T05:39:58.038Z,8600
2018-06-30T05:40:58.772Z,6852
2018-06-30T05:41:59.488Z,9076
2018-06-30T05:43:00.217Z,11688
2018-06-30T05:44:00.947Z,6808
2018-06-30T05:45:01.680Z,8340
2018-06-30T05:46:02.404Z,12800
2018-06-30T05:47:03.142Z,11360
2018-06-30T05:48:03.870Z,9464
2018-06-30T05:49:04.588Z,8740
2018-06-30T05:50:05.320Z,8452
2018-06-30T05:51:06.100Z,8736
2018-06-30T05:52:06.827Z,14068
2018-06-30T05:53:07.564Z,15324
2018-06-30T05:54:08.294Z,16104
2018-06-30T05:55:09.037Z,12808
2018-06-30T05:56:09.801Z,7756
2018-06-30T05:57:10.514Z,9672
2018-06-30T05:58:11.237Z,15136
2018-06-30T05:59:11.962Z,12236
2018-06-30T06:00:12.686Z,12456
2018-06-30T06:01:13.662Z,15200
2018-06-30T06:02:14.440Z,8960
2018-06-30T06:03:15.162Z,4996
2018-06-30T06:04:15.896Z,4408
2018-06-30T06:05:16.627Z,7496
2018-06-30T06:06:17.354Z,7196
2018-06-30T06:07:18.180Z,4172
2018-06-30T06:08:18.905Z,4200
2018-06-30T06:09:19.648Z,4276
2018-06-30T06:10:20.377Z,4112
2018-06-30T06:11:21.346Z,13308
2018-06-30T06:12:22.313Z,7592
2018-06-30T06:13:23.046Z,4208
2018-06-30T06:14:23.774Z,8448
2018-06-30T06:15:24.603Z,13764
2018-06-30T06:16:25.257Z,9780
2018-06-30T06:17:25.977Z,8620
2018-06-30T06:18:27.010Z,13772
2018-06-30T06:19:27.738Z,10108
2018-06-30T06:20:28.470Z,4300
2018-06-30T06:21:29.200Z,10416
2018-06-30T06:22:29.930Z,4352
2018-06-30T06:23:30.677Z,28640
2018-06-30T06:24:31.654Z,4396
2018-06-30T06:25:32.373Z,4376
2018-06-30T06:26:33.102Z,4384
2018-06-30T06:27:33.854Z,4404
2018-06-30T06:28:34.568Z,4400
2018-06-30T06:29:35.300Z,4464
2018-06-30T06:30:36.054Z,4444
2018-06-30T06:31:36.780Z,7504
2018-06-30T06:32:37.548Z,4464
2018-06-30T06:33:38.247Z,4540
2018-06-30T06:34:39.330Z,13636
2018-06-30T06:35:40.064Z,4516
2018-06-30T06:36:40.808Z,4532
2018-06-30T06:37:41.530Z,8760
2018-06-30T06:38:42.260Z,4572
2018-06-30T06:39:42.980Z,7528
2018-06-30T06:40:43.708Z,4924
2018-06-30T06:41:44.442Z,12552
2018-06-30T06:42:45.175Z,4612
2018-06-30T06:43:45.895Z,4696
2018-06-30T06:44:46.624Z,4732
2018-06-30T06:45:47.354Z,4280
2018-06-30T06:46:48.137Z,4796
2018-06-30T06:47:49.109Z,5264
2018-06-30T06:48:49.829Z,6400
2018-06-30T06:49:50.559Z,6692
2018-06-30T06:50:51.285Z,19200
2018-06-30T06:51:52.129Z,20000
2018-06-30T06:52:52.856Z,17632
2018-06-30T06:53:53.590Z,6192
2018-06-30T06:54:54.327Z,26336
2018-06-30T06:55:55.059Z,5180
2018-06-30T06:56:55.890Z,7800
2018-06-30T06:57:56.607Z,34784
2018-06-30T06:58:57.336Z,25888
2018-06-30T06:59:58.063Z,36032
2018-06-30T07:00:58.781Z,29184
2018-06-30T07:01:59.756Z,35296
2018-06-30T07:03:00.492Z,7816
2018-06-30T07:04:01.221Z,6912
2018-06-30T07:05:01.958Z,26688
2018-06-30T07:06:02.698Z,17408
2018-06-30T07:07:03.570Z,51232
2018-06-30T07:08:04.311Z,35040
2018-06-30T07:09:05.035Z,31392
2018-06-30T07:10:05.762Z,33152
2018-06-30T07:11:06.493Z,23936
2018-06-30T07:12:07.275Z,4288
2018-06-30T07:13:08.003Z,29632
2018-06-30T07:14:08.733Z,824
2018-06-30T07:15:09.461Z,13256
2018-06-30T07:16:10.186Z,14916
2018-06-30T07:17:10.915Z,57888
2018-06-30T07:18:11.646Z,49152
2018-06-30T07:19:12.369Z,7444
2018-06-30T07:20:13.104Z,67904
2018-06-30T07:21:13.827Z,19580
2018-06-30T07:22:14.800Z,928
2018-06-30T07:23:15.534Z,5544
2018-06-30T07:24:16.421Z,7744
2018-06-30T07:25:17.134Z,7904
2018-06-30T07:26:17.863Z,6688
2018-06-30T07:27:18.593Z,10568
2018-06-30T07:28:19.315Z,25024
2018-06-30T07:29:20.054Z,17504
2018-06-30T07:30:20.787Z,26784
2018-06-30T07:31:21.520Z,27968
2018-06-30T07:32:22.248Z,15808
2018-06-30T07:33:23.582Z,65888
2018-06-30T07:34:24.320Z,4596
2018-06-30T07:35:25.044Z,39968
2018-06-30T07:36:25.778Z,50816
2018-06-30T07:37:26.528Z,68064
2018-06-30T07:38:27.248Z,64672
2018-06-30T07:39:27.983Z,60672
2018-06-30T07:40:29.168Z,95136
2018-06-30T07:41:29.908Z,67232
2018-06-30T07:42:30.882Z,69600
2018-06-30T07:43:31.619Z,69120
2018-06-30T07:44:32.351Z,67712
2018-06-30T07:45:33.091Z,97376
2018-06-30T07:46:33.833Z,11104
2018-06-30T07:47:34.567Z,72320
2018-06-30T07:48:35.295Z,73888
2018-06-30T07:49:36.023Z,136960
2018-06-30T07:50:36.757Z,70912
2018-06-30T07:51:37.483Z,69536
2018-06-30T07:52:38.214Z,70944
2018-06-30T07:53:38.956Z,74560
2018-06-30T07:54:39.702Z,77248
2018-06-30T07:55:40.441Z,76160
2018-06-30T07:56:41.176Z,71424
2018-06-30T07:57:41.914Z,66624
2018-06-30T07:58:42.651Z,66624
2018-06-30T07:59:43.386Z,70208
2018-06-30T08:00:44.381Z,76224
2018-06-30T08:01:45.127Z,79040
2018-06-30T08:02:45.876Z,74528
2018-06-30T08:03:46.604Z,69536
2018-06-30T08:04:47.350Z,68160
2018-06-30T08:05:48.089Z,72320
2018-06-30T08:06:48.825Z,76544
2018-06-30T08:07:49.610Z,77504
2018-06-30T08:08:50.298Z,76960
2018-06-30T08:09:51.295Z,77216
2018-06-30T08:10:52.035Z,80928
2018-06-30T08:11:52.765Z,85184
2018-06-30T08:12:53.496Z,85984
2018-06-30T08:13:54.240Z,83552
2018-06-30T08:14:55.062Z,82336
2018-06-30T08:15:55.805Z,83200
2018-06-30T08:16:56.528Z,84352
2018-06-30T08:17:57.261Z,84256
2018-06-30T08:18:58.004Z,85088
2018-06-30T08:19:58.733Z,87360
2018-06-30T08:20:59.520Z,91232
2018-06-30T08:22:00.260Z,93120
2018-06-30T08:23:01.001Z,92192
2018-06-30T08:24:01.722Z,87200
2018-06-30T08:25:02.456Z,83328
2018-06-30T08:26:03.792Z,80672
2018-06-30T08:27:04.545Z,79424
2018-06-30T08:28:05.279Z,79840
2018-06-30T08:29:06.008Z,78368
2018-06-30T08:30:06.748Z,76928
2018-06-30T08:31:07.875Z,77056
2018-06-30T08:32:08.615Z,77568
2018-06-30T08:33:09.346Z,79648
2018-06-30T08:34:10.329Z,82400
2018-06-30T08:35:11.074Z,85344
2018-06-30T08:36:11.922Z,88896
2018-06-30T08:37:12.593Z,89696
2018-06-30T08:38:13.327Z,88192
2018-06-30T08:39:14.074Z,84768
2018-06-30T08:40:14.802Z,82656
2018-06-30T08:41:15.554Z,82560
2018-06-30T08:42:16.301Z,82880
2018-06-30T08:43:17.073Z,81760
2018-06-30T08:44:17.805Z,80128
2018-06-30T08:45:18.546Z,80608
2018-06-30T08:46:19.284Z,82976
2018-06-30T08:47:20.018Z,86272
2018-06-30T08:48:20.750Z,86880
2018-06-30T08:49:21.483Z,83520
2018-06-30T08:50:22.222Z,81728
2018-06-30T08:51:22.946Z,81408
2018-06-30T08:52:23.688Z,80928
2018-06-30T08:53:24.422Z,79648
2018-06-30T08:54:25.154Z,77184
2018-06-30T08:55:25.962Z,73888
2018-06-30T08:56:26.622Z,75104
2018-06-30T08:57:27.353Z,79552
2018-06-30T08:58:28.087Z,84832
2018-06-30T08:59:28.826Z,85760
2018-06-30T09:00:29.583Z,83584
2018-06-30T09:01:30.317Z,81664
2018-06-30T09:02:31.305Z,81920
2018-06-30T09:03:32.050Z,83424
2018-06-30T09:04:32.782Z,87008
2018-06-30T09:05:33.523Z,91264
2018-06-30T09:06:34.260Z,93504
2018-06-30T09:07:34.976Z,92096
2018-06-30T09:08:35.717Z,90496
2018-06-30T09:09:36.465Z,91360
2018-06-30T09:10:37.261Z,94880
2018-06-30T09:11:37.942Z,96288
2018-06-30T09:12:38.681Z,95136
2018-06-30T09:13:39.515Z,94112
2018-06-30T09:14:40.266Z,93600
2018-06-30T09:15:41.001Z,96384
2018-06-30T09:16:41.740Z,103456
2018-06-30T09:17:42.491Z,107392
2018-06-30T09:18:43.275Z,103040
2018-06-30T09:19:44.009Z,93632
2018-06-30T09:20:44.737Z,89088
2018-06-30T09:21:45.465Z,91904
2018-06-30T09:22:46.193Z,97472
2018-06-30T09:23:46.931Z,100288
2018-06-30T09:24:47.723Z,98720
2018-06-30T09:25:48.454Z,96160
2018-06-30T09:26:49.194Z,95904
2018-06-30T09:27:49.938Z,95296
2018-06-30T09:28:50.684Z,95232
2018-06-30T09:29:51.569Z,94304
2018-06-30T09:30:52.293Z,93760
2018-06-30T09:31:53.027Z,93664
2018-06-30T09:32:53.765Z,90752
2018-06-30T09:33:54.491Z,87616
2018-06-30T09:34:55.237Z,89376
2018-06-30T09:35:55.962Z,96064
2018-06-30T09:36:56.694Z,100768
2018-06-30T09:37:57.465Z,100928
2018-06-30T09:38:58.173Z,92640
2018-06-30T09:39:58.910Z,86432
2018-06-30T09:40:59.642Z,85152
2018-06-30T09:42:00.639Z,88896
2018-06-30T09:43:01.369Z,96896
2018-06-30T09:44:02.109Z,104288
2018-06-30T09:45:02.845Z,104864
2018-06-30T09:46:03.837Z,101312
2018-06-30T09:47:04.581Z,97184
2018-06-30T09:48:05.327Z,99936
2018-06-30T09:49:06.325Z,109472
2018-06-30T09:50:07.557Z,116544
2018-06-30T09:51:09.098Z,115392
2018-06-30T09:52:09.933Z,105440
2018-06-30T09:53:11.199Z,97088
2018-06-30T09:54:12.019Z,94496
2018-06-30T09:55:12.953Z,97536
2018-06-30T09:56:14.585Z,102624
2018-06-30T09:57:15.669Z,107136
2018-06-30T09:58:16.397Z,108512
2018-06-30T09:59:17.606Z,108288
2018-06-30T10:00:18.441Z,105696
2018-06-30T10:01:19.858Z,102880
2018-06-30T10:02:21.096Z,101280
2018-06-30T10:03:21.914Z,100768
2018-06-30T10:04:22.846Z,100352
2018-06-30T10:05:23.599Z,102944
2018-06-30T10:06:25.004Z,105440
2018-06-30T10:07:26.368Z,106112
2018-06-30T10:08:27.192Z,106944
2018-06-30T10:09:27.926Z,105120
2018-06-30T10:10:29.112Z,102976
2018-06-30T10:11:29.936Z,101760
2018-06-30T10:12:31.213Z,101216
2018-06-30T10:13:32.152Z,100544
2018-06-30T10:14:32.995Z,98144
2018-06-30T10:15:34.259Z,98080
2018-06-30T10:16:35.400Z,98208
2018-06-30T10:17:36.306Z,99648
2018-06-30T10:18:37.465Z,101920
2018-06-30T10:19:38.271Z,102784
2018-06-30T10:20:39.006Z,101760
2018-06-30T10:21:40.162Z,100576
2018-06-30T10:22:41.424Z,100288
2018-06-30T10:23:42.632Z,102400
2018-06-30T10:24:43.460Z,102272
2018-06-30T10:25:44.444Z,100896
2018-06-30T10:26:45.630Z,98624
2018-06-30T10:27:46.858Z,96032
2018-06-30T10:28:48.050Z,96672
2018-06-30T10:29:49.227Z,99296
2018-06-30T10:30:50.069Z,102464
2018-06-30T10:31:51.238Z,105920
2018-06-30T10:32:52.169Z,108800
2018-06-30T10:33:52.908Z,110944
2018-06-30T10:34:54.072Z,110336
2018-06-30T10:35:54.899Z,108480
2018-06-30T10:36:55.641Z,108288
2018-06-30T10:37:56.374Z,108032
2018-06-30T10:38:57.097Z,107360
2018-06-30T10:39:57.833Z,106368
2018-06-30T10:40:58.566Z,102688
2018-06-30T10:41:59.291Z,100256
2018-06-30T10:43:00.032Z,99168
2018-06-30T10:44:00.925Z,99872
2018-06-30T10:45:01.675Z,101632
2018-06-30T10:46:02.407Z,105120
2018-06-30T10:47:03.148Z,105792
2018-06-30T10:48:03.877Z,104512
2018-06-30T10:49:04.673Z,100800
2018-06-30T10:50:05.414Z,99840
2018-06-30T10:51:06.160Z,102080
2018-06-30T10:52:06.897Z,104320
2018-06-30T10:53:07.636Z,105696
2018-06-30T10:54:08.370Z,106304
2018-06-30T10:55:09.110Z,105344
2018-06-30T10:56:09.861Z,103232
2018-06-30T10:57:10.592Z,102144
2018-06-30T10:58:11.343Z,103328
2018-06-30T10:59:12.102Z,105472
2018-06-30T11:00:12.897Z,107520
2018-06-30T11:01:13.568Z,108192
2018-06-30T11:02:14.300Z,107232
2018-06-30T11:03:15.283Z,106912
2018-06-30T11:04:16.077Z,106144
2018-06-30T11:05:16.887Z,106496
2018-06-30T11:06:17.490Z,107968
2018-06-30T11:07:18.222Z,110976
2018-06-30T11:08:18.963Z,112160
2018-06-30T11:09:19.710Z,110432
2018-06-30T11:10:20.540Z,109216
2018-06-30T11:11:21.283Z,108928
2018-06-30T11:12:22.259Z,108256
2018-06-30T11:13:22.996Z,105824
2018-06-30T11:14:23.727Z,103680
2018-06-30T11:15:24.769Z,103232
2018-06-30T11:16:25.518Z,103904
2018-06-30T11:17:26.280Z,105536
2018-06-30T11:18:26.976Z,107136
2018-06-30T11:19:27.717Z,109568
2018-06-30T11:20:28.805Z,110976
2018-06-30T11:21:29.551Z,110528
2018-06-30T11:22:30.346Z,109536
2018-06-30T11:23:31.027Z,108512
2018-06-30T11:24:31.754Z,106752
2018-06-30T11:25:32.497Z,104896
2018-06-30T11:26:33.255Z,101472
2018-06-30T11:27:33.980Z,100608
2018-06-30T11:28:34.722Z,101824
2018-06-30T11:29:35.462Z,103232
2018-06-30T11:30:36.193Z,104672
2018-06-30T11:31:36.932Z,105664
2018-06-30T11:32:37.683Z,108960
2018-06-30T11:33:38.416Z,111136
2018-06-30T11:34:39.162Z,110656
2018-06-30T11:35:39.906Z,109152
2018-06-30T11:36:40.650Z,107200
2018-06-30T11:37:41.382Z,105984
2018-06-30T11:38:42.364Z,109184
2018-06-30T11:39:43.099Z,111808
2018-06-30T11:40:43.859Z,111200
2018-06-30T11:41:44.576Z,108384
2018-06-30T11:42:45.319Z,106592
2018-06-30T11:43:46.107Z,102272
2018-06-30T11:44:46.843Z,101056
2018-06-30T11:45:47.580Z,103840
2018-06-30T11:46:48.324Z,105632
2018-06-30T11:47:49.059Z,106848
2018-06-30T11:48:49.793Z,108096
2018-06-30T11:49:50.922Z,109344
2018-06-30T11:50:51.680Z,109056
2018-06-30T11:51:52.418Z,107040
2018-06-30T11:52:53.151Z,103776
2018-06-30T11:53:53.880Z,102592
2018-06-30T11:54:54.678Z,106752
2018-06-30T11:55:55.414Z,104352
2018-06-30T11:56:56.164Z,102080
2018-06-30T11:57:57.151Z,98048
2018-06-30T11:58:57.887Z,95328
2018-06-30T11:59:58.976Z,95840
2018-06-30T12:00:59.728Z,97600
2018-06-30T12:02:00.462Z,102912
2018-06-30T12:03:01.191Z,108448
2018-06-30T12:04:01.966Z,112000
2018-06-30T12:05:02.694Z,111616
2018-06-30T12:06:03.424Z,107904
2018-06-30T12:07:04.413Z,106592
2018-06-30T12:08:05.192Z,109216
2018-06-30T12:09:05.924Z,112928
2018-06-30T12:10:06.668Z,113056
2018-06-30T12:11:07.404Z,109824
2018-06-30T12:12:08.149Z,106496
2018-06-30T12:13:09.277Z,104544
2018-06-30T12:14:10.025Z,104512
2018-06-30T12:15:10.769Z,106560
2018-06-30T12:16:11.505Z,109056
2018-06-30T12:17:12.238Z,111008
2018-06-30T12:18:12.969Z,109024
2018-06-30T12:19:13.706Z,106176
2018-06-30T12:20:14.438Z,102496
2018-06-30T12:21:15.193Z,100416
2018-06-30T12:22:15.923Z,101920
2018-06-30T12:23:16.664Z,103584
2018-06-30T12:24:17.412Z,106048
2018-06-30T12:25:18.143Z,105984
2018-06-30T12:26:19.123Z,105024
2018-06-30T12:27:19.886Z,101312
2018-06-30T12:28:20.624Z,98720
2018-06-30T12:29:21.373Z,96640
2018-06-30T12:30:22.114Z,95776
2018-06-30T12:31:22.842Z,96064
2018-06-30T12:32:23.621Z,99264
2018-06-30T12:33:24.335Z,104480
2018-06-30T12:34:25.077Z,110208
2018-06-30T12:35:26.066Z,111808
2018-06-30T12:36:26.795Z,108960
2018-06-30T12:37:27.536Z,103392
2018-06-30T12:38:28.276Z,99328
2018-06-30T12:39:29.022Z,95680
2018-06-30T12:40:29.757Z,95936
2018-06-30T12:41:30.541Z,98688
2018-06-30T12:42:31.282Z,103040
2018-06-30T12:43:32.022Z,108128
2018-06-30T12:44:32.999Z,109344
2018-06-30T12:45:33.735Z,106400
2018-06-30T12:46:34.466Z,100384
2018-06-30T12:47:35.200Z,94880
2018-06-30T12:48:36.086Z,92672
2018-06-30T12:49:36.835Z,92192
2018-06-30T12:50:37.567Z,89888
2018-06-30T12:51:38.321Z,88896
2018-06-30T12:52:39.057Z,88160
2018-06-30T12:53:39.852Z,88800
2018-06-30T12:54:40.698Z,90144
2018-06-30T12:55:41.339Z,90496
2018-06-30T12:56:42.080Z,91232
2018-06-30T12:57:42.821Z,94752
2018-06-30T12:58:43.571Z,98208
2018-06-30T12:59:44.307Z,100384
2018-06-30T13:00:45.054Z,101920
2018-06-30T13:01:45.887Z,100544
2018-06-30T13:02:46.647Z,98656
2018-06-30T13:03:47.428Z,93632
2018-06-30T13:04:48.129Z,86848
2018-06-30T13:05:48.864Z,79936
2018-06-30T13:06:49.972Z,77984
2018-06-30T13:07:50.703Z,81568
2018-06-30T13:08:51.439Z,85344
2018-06-30T13:09:52.179Z,86560
2018-06-30T13:10:52.905Z,85088
2018-06-30T13:11:53.702Z,82656
2018-06-30T13:12:54.443Z,81312
2018-06-30T13:13:55.177Z,82528
2018-06-30T13:14:55.914Z,84576
2018-06-30T13:15:56.660Z,89120
2018-06-30T13:16:57.442Z,95520
2018-06-30T13:17:58.187Z,100480
2018-06-30T13:18:58.924Z,100544
2018-06-30T13:19:59.676Z,95008
2018-06-30T13:21:00.409Z,88160
2018-06-30T13:22:01.240Z,84064
2018-06-30T13:23:01.996Z,83808
2018-06-30T13:24:02.739Z,87648
2018-06-30T13:25:03.729Z,93312
2018-06-30T13:26:04.460Z,99680
2018-06-30T13:27:05.200Z,103680
2018-06-30T13:28:05.944Z,102688